createdAt,value
2022-11-27T00:01:39.764Z,100.00
2022-11-27T00:16:41.510Z,100.00
2022-11-27T00:31:43.186Z,100.00
2022-11-27T00:46:45.692Z,100.00
2022-11-27T01:01:47.448Z,100.00
2022-11-27T01:16:49.041Z,100.00
2022-11-27T01:31:50.604Z,100.00
2022-11-27T01:46:56.936Z,100.00
2022-11-27T02:01:58.604Z,100.00
2022-11-27T02:17:09.542Z,100.00
2022-11-27T02:32:20.050Z,100.00
2022-11-27T02:47:22.032Z,100.00
2022-11-27T03:02:27.522Z,100.00
2022-11-27T03:17:47.411Z,100.00
2022-11-27T03:32:49.064Z,100.00
2022-11-27T03:47:56.834Z,100.00
2022-11-27T04:02:58.348Z,100.00
2022-11-27T04:17:59.834Z,100.00
2022-11-27T04:33:01.483Z,100.00
2022-11-27T04:48:03.599Z,100.00
2022-11-27T05:03:05.117Z,100.00
2022-11-27T05:18:06.581Z,100.00
2022-11-27T05:33:08.050Z,100.00
2022-11-27T05:48:09.484Z,100.00
2022-11-27T06:03:11.142Z,100.00
2022-11-27T06:18:13.076Z,100.00
2022-11-27T06:33:14.544Z,100.00
2022-11-27T06:48:16.061Z,100.00
2022-11-27T07:03:17.552Z,100.00
2022-11-27T07:18:19.004Z,100.00
2022-11-27T07:33:20.492Z,100.00
2022-11-27T07:48:22.327Z,100.00
2022-11-27T08:03:24.101Z,100.00
2022-11-27T08:18:25.613Z,100.00
2022-11-27T08:33:27.409Z,100.00
2022-11-27T08:48:28.875Z,100.00
2022-11-27T09:03:30.864Z,100.00
2022-11-27T09:18:32.385Z,100.00
2022-11-27T09:33:36.740Z,100.00
2022-11-27T09:48:39.920Z,100.00
2022-11-27T10:03:42.420Z,100.00
2022-11-27T10:18:49.584Z,100.00
2022-11-27T10:33:55.896Z,100.00
2022-11-27T10:48:57.875Z,100.00
2022-11-27T11:04:18.679Z,99.62
2022-11-27T11:19:32.276Z,100.00
2022-11-27T11:34:34.094Z,92.54
2022-11-27T11:49:36.108Z,90.88
2022-11-27T12:04:43.912Z,90.32
2022-11-27T12:19:45.642Z,94.24
2022-11-27T12:34:56.908Z,92.19
2022-11-27T12:50:02.344Z,91.24
2022-11-27T13:05:03.818Z,91.45
2022-11-27T13:20:06.793Z,92.93
2022-11-27T13:35:19.844Z,98.25
2022-11-27T13:50:25.752Z,98.63
2022-11-27T14:05:55.850Z,91.81
2022-11-27T14:21:01.937Z,90.04
2022-11-27T14:36:04.918Z,77.05
2022-11-27T14:51:07.052Z,70.25
2022-11-27T15:06:08.575Z,69.60
2022-11-27T15:21:18.068Z,69.53
2022-11-27T15:36:21.038Z,66.85
2022-11-27T15:51:23.277Z,67.48
2022-11-27T16:06:25.410Z,69.03
2022-11-27T16:21:29.689Z,70.07
2022-11-27T16:36:32.096Z,75.05
2022-11-27T16:51:35.129Z,79.91
2022-11-27T17:06:38.758Z,82.67
2022-11-27T17:21:41.090Z,83.25
2022-11-27T17:36:45.029Z,84.06
2022-11-27T17:51:47.081Z,100.00
2022-11-27T18:06:49.058Z,100.00
2022-11-27T18:21:51.057Z,100.00
2022-11-27T18:36:57.306Z,100.00
2022-11-27T18:51:59.367Z,100.00
2022-11-27T19:07:01.440Z,100.00
2022-11-27T19:22:03.605Z,100.00
2022-11-27T19:37:05.685Z,100.00
2022-11-27T19:52:07.735Z,100.00
2022-11-27T20:07:10.291Z,100.00
2022-11-27T20:22:12.474Z,100.00
2022-11-27T20:37:14.533Z,100.00
2022-11-27T20:52:16.669Z,100.00
2022-11-27T21:07:19.492Z,100.00
2022-11-27T21:22:21.300Z,100.00
2022-11-27T21:37:24.419Z,100.00
2022-11-27T21:52:25.878Z,100.00
2022-11-27T22:16:10.248Z,100.00
2022-11-27T22:31:16.304Z,100.00
2022-11-27T22:46:20.412Z,100.00
2022-11-27T23:01:23.756Z,100.00
2022-11-27T23:16:25.401Z,100.00
2022-11-27T23:31:30.702Z,100.00
2022-11-27T23:46:32.540Z,100.00
